sensor_id;sensor_type;location;lat;lon;timestamp;pressure;altitude;pressure_sealevel;temperature;humidity
71567;BME280;59403;47.456;19.120;2023-04-08T00:01:37;100616.94;;;4.14;100.00
71567;BME280;59403;47.456;19.120;2023-04-08T00:04:04;100613.03;;;3.96;100.00
71567;BME280;59403;47.456;19.120;2023-04-08T00:06:33;100609.56;;;3.95;100.00
71567;BME280;59403;47.456;19.120;2023-04-08T00:09:03;100613.31;;;4.04;100.00
71567;BME280;59403;47.456;19.120;2023-04-08T00:11:31;100606.78;;;4.09;100.00
71567;BME280;59403;47.456;19.120;2023-04-08T00:13:59;100611.06;;;4.10;100.00
71567;BME280;59403;47.456;19.120;2023-04-08T00:16:25;100620.22;;;4.05;100.00
71567;BME280;59403;47.456;19.120;2023-04-08T00:18:52;100610.25;;;4.10;100.00
71567;BME280;59403;47.456;19.120;2023-04-08T00:21:20;100613.19;;;4.05;100.00
71567;BME280;59403;47.456;19.120;2023-04-08T00:23:48;100618.31;;;4.07;100.00
71567;BME280;59403;47.456;19.120;2023-04-08T00:26:16;100614.88;;;4.06;100.00
71567;BME280;59403;47.456;19.120;2023-04-08T00:28:43;100617.69;;;4.03;100.00
71567;BME280;59403;47.456;19.120;2023-04-08T00:31:11;100612.56;;;4.02;100.00
71567;BME280;59403;47.456;19.120;2023-04-08T00:33:38;100614.91;;;3.94;100.00
71567;BME280;59403;47.456;19.120;2023-04-08T00:36:05;100613.16;;;3.94;100.00
71567;BME280;59403;47.456;19.120;2023-04-08T00:38:32;100613.31;;;4.04;100.00
71567;BME280;59403;47.456;19.120;2023-04-08T00:40:59;100611.53;;;4.04;100.00
71567;BME280;59403;47.456;19.120;2023-04-08T00:43:27;100605.56;;;4.02;100.00
71567;BME280;59403;47.456;19.120;2023-04-08T00:45:54;100619.16;;;4.07;100.00
71567;BME280;59403;47.456;19.120;2023-04-08T00:48:21;100617.06;;;4.00;100.00
71567;BME280;59403;47.456;19.120;2023-04-08T00:50:47;100622.25;;;4.01;100.00
71567;BME280;59403;47.456;19.120;2023-04-08T00:53:16;100617.53;;;3.94;100.00
71567;BME280;59403;47.456;19.120;2023-04-08T00:55:44;100624.56;;;3.81;100.00
71567;BME280;59403;47.456;19.120;2023-04-08T00:58:11;100626.03;;;3.85;100.00
71567;BME280;59403;47.456;19.120;2023-04-08T01:00:43;100620.56;;;3.88;100.00
71567;BME280;59403;47.456;19.120;2023-04-08T01:03:16;100621.19;;;3.91;100.00
71567;BME280;59403;47.456;19.120;2023-04-08T01:05:53;100624.69;;;3.79;100.00
71567;BME280;59403;47.456;19.120;2023-04-08T01:08:24;100622.06;;;3.79;100.00
71567;BME280;59403;47.456;19.120;2023-04-08T01:10:56;100625.12;;;3.86;100.00
71567;BME280;59403;47.456;19.120;2023-04-08T01:13:25;100627.50;;;3.89;100.00
71567;BME280;59403;47.456;19.120;2023-04-08T01:15:55;100620.47;;;3.89;100.00
71567;BME280;59403;47.456;19.120;2023-04-08T01:18:23;100620.06;;;3.83;100.00
71567;BME280;59403;47.456;19.120;2023-04-08T01:20:50;100619.44;;;3.79;100.00
71567;BME280;59403;47.456;19.120;2023-04-08T01:23:24;100619.34;;;3.81;100.00
71567;BME280;59403;47.456;19.120;2023-04-08T01:25:57;100621.97;;;3.81;100.00
71567;BME280;59403;47.456;19.120;2023-04-08T01:28:27;100619.16;;;3.84;100.00
71567;BME280;59403;47.456;19.120;2023-04-08T01:30:57;100621.66;;;3.85;100.00
71567;BME280;59403;47.456;19.120;2023-04-08T01:33:26;100624.03;;;3.88;100.00
71567;BME280;59403;47.456;19.120;2023-04-08T01:35:55;100621.88;;;3.82;100.00
71567;BME280;59403;47.456;19.120;2023-04-08T01:38:23;100624.38;;;3.84;100.00
71567;BME280;59403;47.456;19.120;2023-04-08T01:40:52;100624.56;;;3.81;100.00
71567;BME280;59403;47.456;19.120;2023-04-08T01:43:23;100621.03;;;3.82;100.00
71567;BME280;59403;47.456;19.120;2023-04-08T01:45:51;100620.41;;;3.78;100.00
71567;BME280;59403;47.456;19.120;2023-04-08T01:48:23;100620.91;;;3.83;100.00
71567;BME280;59403;47.456;19.120;2023-04-08T01:50:51;100622.28;;;3.76;100.00
71567;BME280;59403;47.456;19.120;2023-04-08T01:53:18;100624.56;;;3.81;100.00
71567;BME280;59403;47.456;19.120;2023-04-08T01:55:45;100610.31;;;3.85;100.00
71567;BME280;59403;47.456;19.120;2023-04-08T01:58:19;100613.91;;;3.84;100.00
71567;BME280;59403;47.456;19.120;2023-04-08T02:00:50;100614.22;;;3.67;100.00
71567;BME280;59403;47.456;19.120;2023-04-08T02:03:21;100616.22;;;3.76;100.00
71567;BME280;59403;47.456;19.120;2023-04-08T02:05:50;100621.16;;;3.80;100.00
71567;BME280;59403;47.456;19.120;2023-04-08T02:08:17;100616.84;;;3.79;100.00
71567;BME280;59403;47.456;19.120;2023-04-08T02:10:43;100612.78;;;3.75;100.00
71567;BME280;59403;47.456;19.120;2023-04-08T02:13:10;100615.78;;;3.82;100.00
71567;BME280;59403;47.456;19.120;2023-04-08T02:15:40;100608.66;;;3.84;100.00
71567;BME280;59403;47.456;19.120;2023-04-08T02:18:12;100606.97;;;3.83;100.00
71567;BME280;59403;47.456;19.120;2023-04-08T02:20:43;100611.59;;;3.79;100.00
71567;BME280;59403;47.456;19.120;2023-04-08T02:23:17;100613.41;;;3.79;100.00
71567;BME280;59403;47.456;19.120;2023-04-08T02:25:46;100615.47;;;3.74;100.00
71567;BME280;59403;47.456;19.120;2023-04-08T02:28:16;100612.16;;;3.72;100.00
71567;BME280;59403;47.456;19.120;2023-04-08T02:30:48;100615.31;;;3.64;100.00
71567;BME280;59403;47.456;19.120;2023-04-08T02:33:19;100617.81;;;3.66;100.00
71567;BME280;59403;47.456;19.120;2023-04-08T02:35:48;100608.50;;;3.62;100.00
71567;BME280;59403;47.456;19.120;2023-04-08T02:38:16;100602.75;;;3.57;100.00
71567;BME280;59403;47.456;19.120;2023-04-08T02:40:42;100617.47;;;3.70;100.00
71567;BME280;59403;47.456;19.120;2023-04-08T02:43:09;100614.34;;;3.65;100.00
71567;BME280;59403;47.456;19.120;2023-04-08T02:45:38;100606.81;;;3.73;100.00
71567;BME280;59403;47.456;19.120;2023-04-08T02:48:07;100601.97;;;3.67;100.00
71567;BME280;59403;47.456;19.120;2023-04-08T02:50:35;100609.00;;;3.67;100.00
71567;BME280;59403;47.456;19.120;2023-04-08T02:53:02;100613.72;;;3.62;100.00
71567;BME280;59403;47.456;19.120;2023-04-08T02:55:29;100607.13;;;3.69;100.00
71567;BME280;59403;47.456;19.120;2023-04-08T02:57:56;100607.00;;;3.70;100.00
71567;BME280;59403;47.456;19.120;2023-04-08T03:00:23;100606.19;;;3.70;100.00
71567;BME280;59403;47.456;19.120;2023-04-08T03:02:50;100609.09;;;3.78;100.00
71567;BME280;59403;47.456;19.120;2023-04-08T03:05:17;100616.72;;;3.81;100.00
71567;BME280;59403;47.456;19.120;2023-04-08T03:07:45;100616.53;;;3.71;100.00
71567;BME280;59403;47.456;19.120;2023-04-08T03:10:12;100617.69;;;3.80;100.00
71567;BME280;59403;47.456;19.120;2023-04-08T03:12:39;100607.00;;;3.70;100.00
71567;BME280;59403;47.456;19.120;2023-04-08T03:15:07;100619.69;;;3.76;100.00
71567;BME280;59403;47.456;19.120;2023-04-08T03:17:34;100606.37;;;3.67;100.00
71567;BME280;59403;47.456;19.120;2023-04-08T03:20:01;100609.63;;;3.70;100.00
71567;BME280;59403;47.456;19.120;2023-04-08T03:22:29;100608.72;;;3.59;100.00
71567;BME280;59403;47.456;19.120;2023-04-08T03:24:57;100624.41;;;3.71;100.00
71567;BME280;59403;47.456;19.120;2023-04-08T03:27:24;100613.81;;;3.73;100.00
71567;BME280;59403;47.456;19.120;2023-04-08T03:29:52;100622.19;;;3.78;100.00
71567;BME280;59403;47.456;19.120;2023-04-08T03:32:19;100617.06;;;3.76;100.00
71567;BME280;59403;47.456;19.120;2023-04-08T03:34:46;100616.09;;;3.77;100.00
71567;BME280;59403;47.456;19.120;2023-04-08T03:37:16;100621.34;;;3.77;100.00
71567;BME280;59403;47.456;19.120;2023-04-08T03:39:43;100624.81;;;3.78;100.00
71567;BME280;59403;47.456;19.120;2023-04-08T03:42:12;100622.81;;;3.69;100.00
71567;BME280;59403;47.456;19.120;2023-04-08T03:44:39;100631.62;;;3.68;100.00
71567;BME280;59403;47.456;19.120;2023-04-08T03:47:06;100628.19;;;3.67;100.00
71567;BME280;59403;47.456;19.120;2023-04-08T03:49:32;100633.81;;;3.74;100.00
71567;BME280;59403;47.456;19.120;2023-04-08T03:52:00;100633.28;;;3.69;100.00
71567;BME280;59403;47.456;19.120;2023-04-08T03:54:27;100632.47;;;3.68;100.00
71567;BME280;59403;47.456;19.120;2023-04-08T03:56:54;100629.44;;;3.62;100.00
71567;BME280;59403;47.456;19.120;2023-04-08T03:59:22;100635.12;;;3.56;100.00
71567;BME280;59403;47.456;19.120;2023-04-08T04:01:49;100636.59;;;3.60;100.00
71567;BME280;59403;47.456;19.120;2023-04-08T04:04:18;100645.69;;;3.54;100.00
71567;BME280;59403;47.456;19.120;2023-04-08T04:06:45;100651.44;;;3.59;100.00
71567;BME280;59403;47.456;19.120;2023-04-08T04:09:11;100649.75;;;3.58;100.00
71567;BME280;59403;47.456;19.120;2023-04-08T04:11:39;100649.56;;;3.61;100.00
71567;BME280;59403;47.456;19.120;2023-04-08T04:14:07;100653.97;;;3.61;100.00
71567;BME280;59403;47.456;19.120;2023-04-08T04:16:35;100655.22;;;3.68;100.00
71567;BME280;59403;47.456;19.120;2023-04-08T04:19:02;100670.69;;;3.71;100.00
71567;BME280;59403;47.456;19.120;2023-04-08T04:21:29;100666.59;;;3.67;100.00
71567;BME280;59403;47.456;19.120;2023-04-08T04:23:56;100664.94;;;3.53;100.00
71567;BME280;59403;47.456;19.120;2023-04-08T04:26:22;100663.06;;;3.55;100.00
71567;BME280;59403;47.456;19.120;2023-04-08T04:28:50;100668.94;;;3.59;100.00
71567;BME280;59403;47.456;19.120;2023-04-08T04:31:17;100668.63;;;3.63;100.00
71567;BME280;59403;47.456;19.120;2023-04-08T04:33:46;100662.78;;;3.60;100.00
71567;BME280;59403;47.456;19.120;2023-04-08T04:36:13;100665.91;;;3.52;100.00
71567;BME280;59403;47.456;19.120;2023-04-08T04:38:40;100664.53;;;3.59;100.00
71567;BME280;59403;47.456;19.120;2023-04-08T04:41:08;100662.22;;;3.67;100.00
71567;BME280;59403;47.456;19.120;2023-04-08T04:43:35;100670.47;;;3.74;100.00
71567;BME280;59403;47.456;19.120;2023-04-08T04:46:02;100666.59;;;3.67;100.00
71567;BME280;59403;47.456;19.120;2023-04-08T04:48:33;100669.16;;;3.68;100.00
71567;BME280;59403;47.456;19.120;2023-04-08T04:51:02;100674.28;;;3.70;100.00
71567;BME280;59403;47.456;19.120;2023-04-08T04:53:29;100667.78;;;3.63;100.00
71567;BME280;59403;47.456;19.120;2023-04-08T04:55:56;100665.16;;;3.63;100.00
71567;BME280;59403;47.456;19.120;2023-04-08T04:58:23;100673.31;;;3.71;100.00
71567;BME280;59403;47.456;19.120;2023-04-08T05:00:50;100672.06;;;3.76;100.00
71567;BME280;59403;47.456;19.120;2023-04-08T05:03:17;100675.53;;;3.77;100.00
71567;BME280;59403;47.456;19.120;2023-04-08T05:05:44;100675.31;;;3.67;100.00
71567;BME280;59403;47.456;19.120;2023-04-08T05:08:12;100676.25;;;3.66;100.00
71567;BME280;59403;47.456;19.120;2023-04-08T05:10:39;100680.25;;;3.72;100.00
71567;BME280;59403;47.456;19.120;2023-04-08T05:13:07;100676.44;;;3.76;100.00
71567;BME280;59403;47.456;19.120;2023-04-08T05:15:34;100676.03;;;3.69;100.00
71567;BME280;59403;47.456;19.120;2023-04-08T05:18:01;100682.41;;;3.78;100.00
71567;BME280;59403;47.456;19.120;2023-04-08T05:20:28;100688.50;;;3.78;100.00
71567;BME280;59403;47.456;19.120;2023-04-08T05:22:55;100684.81;;;3.81;100.00
71567;BME280;59403;47.456;19.120;2023-04-08T05:25:23;100688.19;;;3.83;100.00
71567;BME280;59403;47.456;19.120;2023-04-08T05:27:50;100694.25;;;3.83;100.00
71567;BME280;59403;47.456;19.120;2023-04-08T05:30:18;100703.59;;;3.75;100.00
71567;BME280;59403;47.456;19.120;2023-04-08T05:32:45;100703.59;;;3.75;100.00
71567;BME280;59403;47.456;19.120;2023-04-08T05:35:12;100702.22;;;3.82;100.00
71567;BME280;59403;47.456;19.120;2023-04-08T05:37:39;100697.22;;;3.79;100.00
71567;BME280;59403;47.456;19.120;2023-04-08T05:40:06;100708.31;;;3.70;100.00
71567;BME280;59403;47.456;19.120;2023-04-08T05:42:35;100705.06;;;3.66;100.00
71567;BME280;59403;47.456;19.120;2023-04-08T05:45:02;100717.22;;;3.67;100.00
71567;BME280;59403;47.456;19.120;2023-04-08T05:47:30;100721.31;;;3.71;100.00
71567;BME280;59403;47.456;19.120;2023-04-08T05:49:56;100713.97;;;3.76;100.00
71567;BME280;59403;47.456;19.120;2023-04-08T05:52:23;100714.28;;;3.72;100.00
71567;BME280;59403;47.456;19.120;2023-04-08T05:54:51;100715.44;;;3.68;100.00
71567;BME280;59403;47.456;19.120;2023-04-08T05:57:18;100712.31;;;3.63;100.00
71567;BME280;59403;47.456;19.120;2023-04-08T05:59:46;100720.78;;;3.66;100.00
71567;BME280;59403;47.456;19.120;2023-04-08T06:02:13;100717.75;;;3.60;100.00
71567;BME280;59403;47.456;19.120;2023-04-08T06:04:40;100721.59;;;3.67;100.00
71567;BME280;59403;47.456;19.120;2023-04-08T06:07:07;100716.91;;;3.72;100.00
71567;BME280;59403;47.456;19.120;2023-04-08T06:09:34;100714.69;;;3.78;100.00
71567;BME280;59403;47.456;19.120;2023-04-08T06:12:03;100722.34;;;3.81;100.00
71567;BME280;59403;47.456;19.120;2023-04-08T06:14:30;100723.41;;;3.79;100.00
71567;BME280;59403;47.456;19.120;2023-04-08T06:16:58;100722.84;;;3.74;100.00
71567;BME280;59403;47.456;19.120;2023-04-08T06:19:25;100728.31;;;3.83;100.00
71567;BME280;59403;47.456;19.120;2023-04-08T06:21:52;100733.56;;;3.71;100.00
71567;BME280;59403;47.456;19.120;2023-04-08T06:24:23;100731.78;;;3.84;100.00
71567;BME280;59403;47.456;19.120;2023-04-08T06:26:50;100736.41;;;3.80;100.00
71567;BME280;59403;47.456;19.120;2023-04-08T06:29:18;100733.66;;;3.82;100.00
71567;BME280;59403;47.456;19.120;2023-04-08T06:31:45;100741.81;;;3.90;100.00
71567;BME280;59403;47.456;19.120;2023-04-08T06:34:13;100740.78;;;3.80;100.00
71567;BME280;59403;47.456;19.120;2023-04-08T06:36:41;100736.50;;;3.79;100.00
71567;BME280;59403;47.456;19.120;2023-04-08T06:39:09;100744.25;;;3.80;100.00
71567;BME280;59403;47.456;19.120;2023-04-08T06:41:35;100739.00;;;3.80;100.00
71567;BME280;59403;47.456;19.120;2023-04-08T06:44:02;100743.41;;;3.80;100.00
71567;BME280;59403;47.456;19.120;2023-04-08T06:46:29;100738.56;;;3.86;100.00
71567;BME280;59403;47.456;19.120;2023-04-08T06:48:57;100751.78;;;3.85;100.00
71567;BME280;59403;47.456;19.120;2023-04-08T06:51:25;100754.63;;;3.82;100.00
71567;BME280;59403;47.456;19.120;2023-04-08T06:53:52;100753.25;;;3.76;100.00
71567;BME280;59403;47.456;19.120;2023-04-08T06:56:19;100752.00;;;3.82;100.00
71567;BME280;59403;47.456;19.120;2023-04-08T06:58:47;100762.69;;;3.79;100.00
71567;BME280;59403;47.456;19.120;2023-04-08T07:01:14;100755.53;;;3.81;100.00
71567;BME280;59403;47.456;19.120;2023-04-08T07:03:42;100757.03;;;3.85;100.00
71567;BME280;59403;47.456;19.120;2023-04-08T07:06:09;100759.84;;;3.82;100.00
71567;BME280;59403;47.456;19.120;2023-04-08T07:08:37;100753.56;;;3.84;100.00
71567;BME280;59403;47.456;19.120;2023-04-08T07:11:04;100754.06;;;3.89;100.00
71567;BME280;59403;47.456;19.120;2023-04-08T07:13:31;100753.38;;;3.87;100.00
71567;BME280;59403;47.456;19.120;2023-04-08T07:15:58;100758.28;;;3.92;100.00
71567;BME280;59403;47.456;19.120;2023-04-08T07:18:25;100754.00;;;3.91;100.00
71567;BME280;59403;47.456;19.120;2023-04-08T07:20:53;100763.50;;;3.92;100.00
71567;BME280;59403;47.456;19.120;2023-04-08T07:23:20;100765.94;;;3.82;100.00
71567;BME280;59403;47.456;19.120;2023-04-08T07:25:48;100765.72;;;3.98;100.00
71567;BME280;59403;47.456;19.120;2023-04-08T07:28:15;100764.75;;;3.99;100.00
71567;BME280;59403;47.456;19.120;2023-04-08T07:30:42;100769.50;;;3.94;100.00
71567;BME280;59403;47.456;19.120;2023-04-08T07:33:10;100771.25;;;4.06;100.00
71567;BME280;59403;47.456;19.120;2023-04-08T07:35:36;100779.44;;;4.01;100.00
71567;BME280;59403;47.456;19.120;2023-04-08T07:38:03;100783.00;;;4.00;100.00
71567;BME280;59403;47.456;19.120;2023-04-08T07:40:33;100786.06;;;3.94;100.00
71567;BME280;59403;47.456;19.120;2023-04-08T07:43:02;100786.25;;;3.91;100.00
71567;BME280;59403;47.456;19.120;2023-04-08T07:45:28;100794.31;;;4.01;100.00
71567;BME280;59403;47.456;19.120;2023-04-08T07:47:55;100790.34;;;4.08;100.00
71567;BME280;59403;47.456;19.120;2023-04-08T07:50:22;100802.06;;;4.02;100.00
71567;BME280;59403;47.456;19.120;2023-04-08T07:52:49;100804.59;;;4.04;100.00
71567;BME280;59403;47.456;19.120;2023-04-08T07:55:17;100797.47;;;3.93;100.00
71567;BME280;59403;47.456;19.120;2023-04-08T07:57:45;100798.72;;;4.00;100.00
71567;BME280;59403;47.456;19.120;2023-04-08T08:00:14;100814.34;;;4.02;100.00
71567;BME280;59403;47.456;19.120;2023-04-08T08:02:46;100804.47;;;4.05;100.00
71567;BME280;59403;47.456;19.120;2023-04-08T08:05:13;100810.03;;;4.01;100.00
71567;BME280;59403;47.456;19.120;2023-04-08T08:07:40;100802.69;;;4.06;100.00
71567;BME280;59403;47.456;19.120;2023-04-08T08:10:08;100806.06;;;3.95;100.00
71567;BME280;59403;47.456;19.120;2023-04-08T08:12:35;100805.66;;;4.01;100.00
71567;BME280;59403;47.456;19.120;2023-04-08T08:15:02;100806.69;;;4.11;100.00
71567;BME280;59403;47.456;19.120;2023-04-08T08:17:30;100806.81;;;4.10;100.00
71567;BME280;59403;47.456;19.120;2023-04-08T08:19:58;100806.47;;;4.14;100.00
71567;BME280;59403;47.456;19.120;2023-04-08T08:22:25;100812.12;;;4.21;100.00
71567;BME280;59403;47.456;19.120;2023-04-08T08:24:54;100804.13;;;4.22;100.00
71567;BME280;59403;47.456;19.120;2023-04-08T08:27:22;100811.31;;;4.20;100.00
71567;BME280;59403;47.456;19.120;2023-04-08T08:29:49;100817.25;;;4.22;100.00
71567;BME280;59403;47.456;19.120;2023-04-08T08:32:16;100817.78;;;4.27;100.00
71567;BME280;59403;47.456;19.120;2023-04-08T08:34:44;100818.31;;;4.32;100.00
71567;BME280;59403;47.456;19.120;2023-04-08T08:37:11;100819.34;;;4.30;100.00
71567;BME280;59403;47.456;19.120;2023-04-08T08:39:38;100825.44;;;4.30;100.00
71567;BME280;59403;47.456;19.120;2023-04-08T08:42:05;100825.66;;;4.27;100.00
71567;BME280;59403;47.456;19.120;2023-04-08T08:44:33;100822.06;;;4.28;100.00
71567;BME280;59403;47.456;19.120;2023-04-08T08:47:01;100824.38;;;4.33;100.00
71567;BME280;59403;47.456;19.120;2023-04-08T08:49:28;100822.47;;;4.35;100.00
71567;BME280;59403;47.456;19.120;2023-04-08T08:51:57;100835.28;;;4.39;100.00
71567;BME280;59403;47.456;19.120;2023-04-08T08:54:24;100826.69;;;4.37;100.00
71567;BME280;59403;47.456;19.120;2023-04-08T08:56:51;100830.47;;;4.21;100.00
71567;BME280;59403;47.456;19.120;2023-04-08T08:59:18;100840.31;;;4.17;100.00
71567;BME280;59403;47.456;19.120;2023-04-08T09:01:45;100840.94;;;4.21;100.00
71567;BME280;59403;47.456;19.120;2023-04-08T09:04:14;100842.00;;;4.18;100.00
71567;BME280;59403;47.456;19.120;2023-04-08T09:06:43;100840.66;;;4.25;100.00
71567;BME280;59403;47.456;19.120;2023-04-08T09:09:12;100842.81;;;4.31;100.00
71567;BME280;59403;47.456;19.120;2023-04-08T09:11:40;100848.81;;;4.33;100.00
71567;BME280;59403;47.456;19.120;2023-04-08T09:14:18;100849.66;;;4.34;100.00
71567;BME280;59403;47.456;19.120;2023-04-08T09:16:45;100844.59;;;4.31;100.00
71567;BME280;59403;47.456;19.120;2023-04-08T09:19:12;100854.34;;;4.41;100.00
71567;BME280;59403;47.456;19.120;2023-04-08T09:21:40;100858.13;;;4.50;100.00
71567;BME280;59403;47.456;19.120;2023-04-08T09:24:08;100860.75;;;4.50;100.00
71567;BME280;59403;47.456;19.120;2023-04-08T09:26:37;100863.16;;;4.66;100.00
71567;BME280;59403;47.456;19.120;2023-04-08T09:29:04;100866.28;;;4.71;100.00
71567;BME280;59403;47.456;19.120;2023-04-08T09:31:33;100862.72;;;4.59;100.00
71567;BME280;59403;47.456;19.120;2023-04-08T09:34:08;100865.31;;;4.72;100.00
71567;BME280;59403;47.456;19.120;2023-04-08T09:36:36;100876.22;;;4.78;100.00
71567;BME280;59403;47.456;19.120;2023-04-08T09:39:04;100872.44;;;4.82;100.00
71567;BME280;59403;47.456;19.120;2023-04-08T09:41:33;100869.41;;;4.76;100.00
71567;BME280;59403;47.456;19.120;2023-04-08T09:44:03;100869.03;;;4.69;100.00
71567;BME280;59403;47.456;19.120;2023-04-08T09:46:32;100876.56;;;4.48;100.00
71567;BME280;59403;47.456;19.120;2023-04-08T09:49:05;100875.84;;;4.59;100.00
71567;BME280;59403;47.456;19.120;2023-04-08T09:51:39;100884.53;;;4.72;100.00
71567;BME280;59403;47.456;19.120;2023-04-08T09:54:17;100875.06;;;4.82;100.00
71567;BME280;59403;47.456;19.120;2023-04-08T09:56:50;100883.66;;;4.84;100.00
71567;BME280;59403;47.456;19.120;2023-04-08T09:59:23;100875.09;;;4.70;100.00
71567;BME280;59403;47.456;19.120;2023-04-08T10:01:53;100874.66;;;4.76;100.00
71567;BME280;59403;47.456;19.120;2023-04-08T10:04:22;100878.41;;;4.84;100.00
71567;BME280;59403;47.456;19.120;2023-04-08T10:06:56;100884.25;;;5.00;100.00
71567;BME280;59403;47.456;19.120;2023-04-08T10:09:23;100880.03;;;5.10;100.00
71567;BME280;59403;47.456;19.120;2023-04-08T10:11:50;100876.53;;;4.86;100.00
71567;BME280;59403;47.456;19.120;2023-04-08T10:14:18;100889.28;;;5.03;100.00
71567;BME280;59403;47.456;19.120;2023-04-08T10:16:48;100883.69;;;5.08;100.00
71567;BME280;59403;47.456;19.120;2023-04-08T10:19:37;100887.16;;;5.08;100.00
71567;BME280;59403;47.456;19.120;2023-04-08T10:25:27;100881.66;;;4.88;100.00
71567;BME280;59403;47.456;19.120;2023-04-08T10:27:55;100885.84;;;4.90;100.00
71567;BME280;59403;47.456;19.120;2023-04-08T10:30:41;100883.91;;;4.81;100.00
71567;BME280;59403;47.456;19.120;2023-04-08T10:33:14;100884.31;;;4.75;100.00
71567;BME280;59403;47.456;19.120;2023-04-08T10:35:42;100887.03;;;4.86;100.00
71567;BME280;59403;47.456;19.120;2023-04-08T10:38:12;100884.28;;;4.88;100.00
71567;BME280;59403;47.456;19.120;2023-04-08T10:40:40;100876.69;;;4.96;100.00
71567;BME280;59403;47.456;19.120;2023-04-08T10:43:08;100882.75;;;5.09;100.00
71567;BME280;59403;47.456;19.120;2023-04-08T10:45:36;100879.28;;;5.08;100.00
71567;BME280;59403;47.456;19.120;2023-04-08T10:48:18;100884.19;;;5.13;100.00
71567;BME280;59403;47.456;19.120;2023-04-08T10:50:53;100881.75;;;5.22;100.00
71567;BME280;59403;47.456;19.120;2023-04-08T10:53:27;100885.03;;;5.13;100.00
71567;BME280;59403;47.456;19.120;2023-04-08T10:56:02;100887.81;;;4.99;100.00
71567;BME280;59403;47.456;19.120;2023-04-08T10:58:30;100887.66;;;4.90;100.00
71567;BME280;59403;47.456;19.120;2023-04-08T11:01:02;100892.16;;;4.88;100.00
71567;BME280;59403;47.456;19.120;2023-04-08T11:03:31;100894.84;;;4.99;100.00
71567;BME280;59403;47.456;19.120;2023-04-08T11:05:59;100882.75;;;5.09;100.00
71567;BME280;59403;47.456;19.120;2023-04-08T11:08:27;100889.44;;;5.13;100.00
71567;BME280;59403;47.456;19.120;2023-04-08T11:10:54;100880.78;;;5.23;100.00
71567;BME280;59403;47.456;19.120;2023-04-08T11:13:21;100873.97;;;4.97;100.00
71567;BME280;59403;47.456;19.120;2023-04-08T11:15:49;100886.81;;;4.89;100.00
71567;BME280;59403;47.456;19.120;2023-04-08T11:18:16;100884.41;;;5.10;100.00
71567;BME280;59403;47.456;19.120;2023-04-08T11:20:44;100881.56;;;5.13;100.00
71567;BME280;59403;47.456;19.120;2023-04-08T11:23:12;100893.66;;;5.15;100.00
71567;BME280;59403;47.456;19.120;2023-04-08T11:25:40;100887.94;;;5.21;100.00
71567;BME280;59403;47.456;19.120;2023-04-08T11:28:07;100883.16;;;5.39;100.00
71567;BME280;59403;47.456;19.120;2023-04-08T11:30:35;100883.25;;;5.37;100.00
71567;BME280;59403;47.456;19.120;2023-04-08T11:33:03;100894.09;;;5.33;100.00
71567;BME280;59403;47.456;19.120;2023-04-08T11:35:30;100889.25;;;5.16;100.00
71567;BME280;59403;47.456;19.120;2023-04-08T11:37:59;100895.78;;;5.10;100.00
71567;BME280;59403;47.456;19.120;2023-04-08T11:40:26;100893.59;;;5.28;100.00
71567;BME280;59403;47.456;19.120;2023-04-08T11:42:53;100898.16;;;5.37;100.00
71567;BME280;59403;47.456;19.120;2023-04-08T11:45:20;100899.19;;;5.47;100.00
71567;BME280;59403;47.456;19.120;2023-04-08T11:47:47;100897.97;;;5.40;100.00
71567;BME280;59403;47.456;19.120;2023-04-08T11:50:21;100893.09;;;5.46;100.00
71567;BME280;59403;47.456;19.120;2023-04-08T11:52:49;100897.13;;;5.39;100.00
71567;BME280;59403;47.456;19.120;2023-04-08T11:55:25;100894.37;;;5.41;100.00
71567;BME280;59403;47.456;19.120;2023-04-08T11:57:54;100884.09;;;5.38;100.00
71567;BME280;59403;47.456;19.120;2023-04-08T12:00:22;100901.22;;;5.43;100.00
71567;BME280;59403;47.456;19.120;2023-04-08T12:02:50;100891.97;;;5.38;100.00
71567;BME280;59403;47.456;19.120;2023-04-08T12:05:17;100890.28;;;5.37;100.00
71567;BME280;59403;47.456;19.120;2023-04-08T12:07:44;100892.97;;;5.48;100.00
71567;BME280;59403;47.456;19.120;2023-04-08T12:10:12;100882.97;;;5.53;100.00
71567;BME280;59403;47.456;19.120;2023-04-08T12:12:40;100884.66;;;5.54;100.00
71567;BME280;59403;47.456;19.120;2023-04-08T12:15:08;100881.25;;;5.41;100.00
71567;BME280;59403;47.456;19.120;2023-04-08T12:17:35;100890.09;;;5.40;100.00
71567;BME280;59403;47.456;19.120;2023-04-08T12:20:04;100889.78;;;5.32;100.00
71567;BME280;59403;47.456;19.120;2023-04-08T12:22:31;100884.78;;;5.29;100.00
71567;BME280;59403;47.456;19.120;2023-04-08T12:24:58;100886.38;;;5.42;100.00
71567;BME280;59403;47.456;19.120;2023-04-08T12:27:27;100885.94;;;5.48;100.00
71567;BME280;59403;47.456;19.120;2023-04-08T12:29:55;100886.50;;;5.41;100.00
71567;BME280;59403;47.456;19.120;2023-04-08T12:32:22;100881.88;;;5.44;100.00
71567;BME280;59403;47.456;19.120;2023-04-08T12:34:49;100887.97;;;5.45;100.00
71567;BME280;59403;47.456;19.120;2023-04-08T12:37:17;100887.34;;;5.41;100.00
71567;BME280;59403;47.456;19.120;2023-04-08T12:39:45;100878.81;;;5.50;100.00
71567;BME280;59403;47.456;19.120;2023-04-08T12:42:12;100888.28;;;5.40;100.00
71567;BME280;59403;47.456;19.120;2023-04-08T12:44:39;100890.47;;;5.46;100.00
71567;BME280;59403;47.456;19.120;2023-04-08T12:47:07;100887.19;;;5.55;100.00
71567;BME280;59403;47.456;19.120;2023-04-08T12:49:34;100885.28;;;5.57;100.00